Time;durP1;ratioP1;P1;durP2;ratioP2;P2;SDS_P1;SDS_P2;PMS_P1;PMS_P2;Temp;Humidity;BMP_temperature;BMP_pressure;BME280_temperature;BME280_humidity;BME280_pressure;Samples;Min_cycle;Max_cycle;Signal;HPM_P1;HPM_P2
2022/02/07 00:01:22;;;;;;;7.13;1.27;;;4.70;99.90;;;;;;5054265;28;20079;-73
2022/02/07 00:03:54;;;;;;;7.33;1.03;;;4.70;99.90;;;;;;5054192;28;20033;-73
2022/02/07 00:06:20;;;;;;;6.30;1.00;;;4.70;99.90;;;;;;5054236;28;20132;-74
2022/02/07 00:08:46;;;;;;;4.80;0.80;;;4.70;99.90;;;;;;5053939;28;20064;-73
2022/02/07 00:11:14;;;;;;;4.77;0.73;;;4.60;99.90;;;;;;5053928;28;20056;-73
2022/02/07 00:13:40;;;;;;;4.37;0.90;;;4.60;99.90;;;;;;5053742;28;20079;-73
2022/02/07 00:16:06;;;;;;;5.70;0.80;;;4.60;99.90;;;;;;5053934;28;20024;-73
2022/02/07 00:18:33;;;;;;;5.23;1.07;;;4.60;99.90;;;;;;5053812;28;20028;-73
2022/02/07 00:20:59;;;;;;;6.17;1.13;;;4.70;99.90;;;;;;5053855;28;20025;-73
2022/02/07 00:23:26;;;;;;;9.73;1.60;;;4.70;99.90;;;;;;5053666;28;20195;-73
2022/02/07 00:25:53;;;;;;;6.73;1.47;;;4.70;99.90;;;;;;5053825;28;20397;-73
2022/02/07 00:28:20;;;;;;;11.10;2.13;;;4.70;99.90;;;;;;5035732;28;20272;-73
2022/02/07 00:30:46;;;;;;;14.40;2.50;;;4.70;99.90;;;;;;5053639;28;20033;-74
2022/02/07 00:33:13;;;;;;;13.37;2.63;;;4.70;99.90;;;;;;5053459;28;20056;-74
2022/02/07 00:35:40;;;;;;;12.40;2.60;;;4.70;99.90;;;;;;5035760;28;20025;-73
2022/02/07 00:38:14;;;;;;;12.67;2.40;;;4.70;99.90;;;;;;5035155;28;20048;-72
2022/02/07 00:43:41;;;;;;;12.83;3.00;;;4.70;99.90;;;;;;5035319;28;20289;-73
2022/02/07 00:46:10;;;;;;;7.37;1.80;;;4.80;99.90;;;;;;5053315;28;20104;-73
2022/02/07 00:48:37;;;;;;;17.25;4.10;;;4.80;99.90;;;;;;5053259;28;20108;-72
2022/02/07 00:51:04;;;;;;;19.40;3.93;;;4.80;99.90;;;;;;5053080;28;20497;-73
2022/02/07 00:53:33;;;;;;;13.40;2.93;;;4.80;99.90;;;;;;5034974;28;20033;-73
2022/02/07 00:56:01;;;;;;;16.53;2.10;;;4.80;99.90;;;;;;5035124;28;20036;-73
2022/02/07 00:58:31;;;;;;;6.40;1.20;;;4.80;99.90;;;;;;5034946;28;20033;-73
2022/02/07 01:00:58;;;;;;;7.00;1.57;;;4.70;99.90;;;;;;5035095;28;20029;-73
2022/02/07 01:03:29;;;;;;;11.77;1.97;;;4.70;99.90;;;;;;5034774;28;20485;-73
2022/02/07 01:05:58;;;;;;;11.73;1.80;;;4.70;99.90;;;;;;5035019;28;20052;-73
2022/02/07 01:08:37;;;;;;;6.20;1.60;;;4.70;99.90;;;;;;5035060;28;20084;-72
2022/02/07 01:11:14;;;;;;;11.67;1.90;;;4.70;99.90;;;;;;5034984;28;20032;-73
2022/02/07 01:14:10;;;;;;;13.57;2.17;;;4.80;99.90;;;;;;5034732;28;20033;-73
2022/02/07 01:17:56;;;;;;;11.07;1.80;;;4.80;99.90;;;;;;5034808;28;20056;-72
2022/02/07 01:19:59;;;;;;;10.20;1.87;;;4.80;99.90;;;;;;5048636;28;20064;-73
2022/02/07 01:55:45;;;;;;;9.57;1.83;;;4.80;99.90;;;;;;5033933;28;20032;-73
2022/02/07 01:58:14;;;;;;;11.77;2.20;;;4.90;99.90;;;;;;5033892;28;20048;-73
2022/02/07 02:00:42;;;;;;;14.33;2.57;;;4.90;99.90;;;;;;5033950;28;20482;-73
2022/02/07 02:03:10;;;;;;;17.27;2.30;;;4.90;99.90;;;;;;5033915;28;20057;-73
2022/02/07 02:05:44;;;;;;;21.17;2.60;;;4.80;99.90;;;;;;5033890;28;20519;-73
2022/02/07 02:08:19;;;;;;;20.77;2.30;;;4.80;99.90;;;;;;5033636;28;20060;-73
2022/02/07 02:10:52;;;;;;;14.48;2.35;;;4.90;99.90;;;;;;5033791;28;20036;-72
2022/02/07 02:13:26;;;;;;;12.10;2.50;;;4.90;99.90;;;;;;5033387;28;20041;-73
2022/02/07 02:16:05;;;;;;;12.40;2.47;;;4.80;99.90;;;;;;5033681;28;20025;-73
2022/02/07 02:38:15;;;;;;;9.13;1.93;;;4.60;99.90;;;;;;4953717;28;20031;-72
2022/02/07 02:46:17;;;;;;;12.83;1.77;;;4.60;99.90;;;;;;5033160;28;20112;-72
2022/02/07 02:48:45;;;;;;;15.70;2.53;;;4.50;99.90;;;;;;5033221;28;20068;-72
2022/02/07 02:51:11;;;;;;;15.90;2.10;;;4.60;99.90;;;;;;5033349;28;20461;-72
2022/02/07 02:53:38;;;;;;;11.63;1.80;;;4.50;99.90;;;;;;5033001;28;20040;-73
2022/02/07 02:56:05;;;;;;;8.40;1.90;;;4.50;99.90;;;;;;5032972;28;20024;-72
2022/02/07 02:58:56;;;;;;;9.20;1.40;;;4.50;99.90;;;;;;5028600;28;20049;-73
2022/02/07 03:01:27;;;;;;;11.27;1.90;;;4.50;99.90;;;;;;5032937;28;20120;-73
2022/02/07 03:04:03;;;;;;;12.10;1.77;;;4.50;99.90;;;;;;5033089;28;20041;-72
2022/02/07 03:06:29;;;;;;;10.53;2.13;;;4.50;99.90;;;;;;5032972;28;20406;-73
2022/02/07 03:08:58;;;;;;;12.17;2.37;;;4.50;99.90;;;;;;5032892;28;20056;-73
2022/02/07 03:11:25;;;;;;;16.17;3.27;;;4.40;99.90;;;;;;5016659;28;20072;-72
2022/02/07 03:13:57;;;;;;;20.17;3.60;;;4.40;99.90;;;;;;5032751;28;20033;-72
2022/02/07 03:16:43;;;;;;;19.40;4.00;;;4.40;99.90;;;;;;5050345;28;20044;-72
2022/02/07 03:19:16;;;;;;;21.77;5.03;;;4.40;99.90;;;;;;5032973;28;20033;-72
2022/02/07 03:21:45;;;;;;;17.57;4.70;;;4.40;99.90;;;;;;5032868;28;20021;-73
2022/02/07 03:24:13;;;;;;;22.37;4.90;;;4.40;99.90;;;;;;5050435;28;20028;-72
2022/02/07 03:26:59;;;;;;;15.03;3.20;;;4.40;99.90;;;;;;5032858;28;20029;-72
2022/02/07 03:29:31;;;;;;;12.13;2.17;;;4.40;99.90;;;;;;5032663;28;20029;-72
2022/02/07 03:31:57;;;;;;;14.30;2.00;;;4.50;99.90;;;;;;5032912;28;20387;-72
2022/02/07 03:34:42;;;;;;;12.07;2.37;;;4.50;99.90;;;;;;5050586;28;20335;-72
2022/02/07 03:37:11;;;;;;;14.02;2.53;;;4.50;99.90;;;;;;5032639;28;20053;-73
2022/02/07 03:39:38;;;;;;;20.27;4.63;;;4.50;99.90;;;;;;5032657;28;20056;-72
2022/02/07 03:42:04;;;;;;;30.13;8.10;;;4.40;99.90;;;;;;5032549;28;20511;-73
2022/02/07 03:44:31;;;;;;;29.90;6.80;;;4.40;99.90;;;;;;5032537;28;20052;-72
2022/02/07 03:46:58;;;;;;;24.03;5.03;;;4.40;99.90;;;;;;5050546;28;20389;-72
2022/02/07 03:49:27;;;;;;;22.95;5.90;;;4.50;99.90;;;;;;5032457;28;20028;-72
2022/02/07 03:51:53;;;;;;;24.60;5.87;;;4.50;99.90;;;;;;5032576;28;20040;-72
2022/02/07 03:54:21;;;;;;;25.00;5.20;;;4.50;99.90;;;;;;5032248;28;20501;-73
2022/02/07 03:56:52;;;;;;;20.70;4.57;;;4.50;99.90;;;;;;5032411;28;20021;-73
2022/02/07 03:59:18;;;;;;;20.30;5.20;;;4.60;99.90;;;;;;5032467;28;20075;-73
2022/02/07 04:01:45;;;;;;;15.57;3.40;;;4.60;99.90;;;;;;5032450;28;20025;-72
2022/02/07 04:04:14;;;;;;;17.20;3.20;;;4.60;99.90;;;;;;5032249;28;20037;-73
2022/02/07 04:06:41;;;;;;;13.37;2.20;;;4.60;99.90;;;;;;5032441;28;20036;-72
2022/02/07 04:09:18;;;;;;;10.43;1.60;;;4.60;99.90;;;;;;5032245;28;20033;-73
2022/02/07 04:11:56;;;;;;;11.90;1.80;;;4.60;99.90;;;;;;5032778;28;20436;-72
2022/02/07 04:14:25;;;;;;;10.30;1.70;;;4.60;99.90;;;;;;5035399;28;20037;-73
2022/02/07 04:17:00;;;;;;;13.37;2.17;;;4.60;99.90;;;;;;5035953;28;20029;-72
2022/02/07 04:19:35;;;;;;;16.27;1.60;;;4.60;99.90;;;;;;5036005;28;20024;-72
2022/02/07 04:22:08;;;;;;;10.90;1.60;;;4.60;99.90;;;;;;5035799;28;20374;-72
2022/02/07 04:24:54;;;;;;;13.70;1.60;;;4.60;99.90;;;;;;5052794;28;20052;-73
2022/02/07 04:27:25;;;;;;;12.93;1.70;;;4.60;99.90;;;;;;5053647;28;20025;-73
2022/02/07 04:29:53;;;;;;;12.17;1.70;;;4.60;99.90;;;;;;5035612;28;20081;-73
2022/02/07 04:32:24;;;;;;;9.97;1.73;;;4.60;99.90;;;;;;5035979;28;20433;-72
2022/02/07 04:34:50;;;;;;;13.40;2.43;;;4.60;99.90;;;;;;5035307;28;20306;-74
2022/02/07 04:37:17;;;;;;;12.13;1.60;;;4.60;99.90;;;;;;5035446;28;20056;-73
2022/02/07 04:39:43;;;;;;;13.43;1.80;;;4.60;99.90;;;;;;5035504;28;20493;-72
2022/02/07 04:42:18;;;;;;;13.20;2.07;;;4.60;99.90;;;;;;5035534;28;20625;-72
2022/02/07 04:44:58;;;;;;;13.23;1.87;;;4.70;99.90;;;;;;5035331;28;20079;-72
2022/02/07 04:50:28;;;;;;;16.70;2.27;;;4.70;99.90;;;;;;5035302;28;20029;-72
2022/02/07 04:57:02;;;;;;;14.40;2.07;;;4.70;99.90;;;;;;4955669;28;20420;-72
2022/02/07 04:59:01;;;;;;;13.37;1.77;;;4.70;99.90;;;;;;5032288;28;20124;-72
2022/02/07 05:01:34;;;;;;;19.20;2.03;;;4.70;99.90;;;;;;5035180;28;20095;-73
2022/02/07 05:04:18;;;;;;;15.80;2.33;;;4.70;99.90;;;;;;5034964;28;20040;-72
2022/02/07 05:14:59;;;;;;;14.83;1.63;;;4.80;99.90;;;;;;5034745;28;20039;-72
2022/02/07 05:17:30;;;;;;;18.13;2.17;;;4.80;99.90;;;;;;5034734;28;20478;-73
2022/02/07 05:19:56;;;;;;;13.02;1.73;;;4.80;99.90;;;;;;5034718;28;20112;-73
2022/02/07 05:22:45;;;;;;;17.45;2.08;;;4.90;99.90;;;;;;5034687;28;20025;-73
2022/02/07 05:25:30;;;;;;;17.87;2.40;;;4.90;99.90;;;;;;5052412;28;20047;-72
2022/02/07 05:28:06;;;;;;;11.37;1.90;;;4.90;99.90;;;;;;5034464;28;20044;-73
2022/02/07 05:30:40;;;;;;;11.57;1.80;;;4.90;99.90;;;;;;5052596;28;20037;-73
2022/02/07 05:33:37;;;;;;;16.37;2.37;;;4.90;99.90;;;;;;5014936;28;20053;-73
2022/02/07 05:36:29;;;;;;;11.57;2.10;;;4.90;99.90;;;;;;5022986;28;20044;-72
2022/02/07 05:39:16;;;;;;;15.93;1.80;;;5.00;99.90;;;;;;5034434;28;20032;-73
2022/02/07 05:41:53;;;;;;;14.33;2.47;;;5.00;99.90;;;;;;5019400;28;20043;-73
2022/02/07 05:44:38;;;;;;;19.73;2.07;;;5.00;99.90;;;;;;5034148;28;20071;-73
2022/02/07 05:47:12;;;;;;;13.73;2.00;;;5.00;99.90;;;;;;5052082;28;20128;-73
2022/02/07 05:49:56;;;;;;;14.23;2.10;;;5.00;99.90;;;;;;5052554;28;20555;-73
2022/02/07 05:52:42;;;;;;;16.17;2.13;;;5.00;99.90;;;;;;5052136;28;20146;-73
2022/02/07 05:55:26;;;;;;;18.63;2.10;;;5.00;99.90;;;;;;5034127;28;20108;-73
2022/02/07 05:58:06;;;;;;;12.97;2.27;;;5.10;99.90;;;;;;5040628;23;20037;-73
2022/02/07 06:00:48;;;;;;;16.23;2.43;;;5.10;99.90;;;;;;5030891;28;20122;-75
2022/02/07 06:03:16;;;;;;;14.03;3.03;;;5.10;99.90;;;;;;5014154;28;20036;-74
2022/02/07 06:05:49;;;;;;;18.87;3.17;;;5.10;99.90;;;;;;5031904;28;20260;-75
2022/02/07 06:08:20;;;;;;;19.30;3.03;;;5.20;99.90;;;;;;5030911;28;20036;-75
2022/02/07 06:10:47;;;;;;;13.97;2.33;;;5.20;99.90;;;;;;4997782;28;20033;-73
2022/02/07 06:13:16;;;;;;;19.50;2.90;;;5.20;99.90;;;;;;5030295;28;20117;-74
2022/02/07 06:15:45;;;;;;;20.70;2.50;;;5.20;99.90;;;;;;4998134;28;20567;-73
2022/02/07 06:18:15;;;;;;;19.53;2.57;;;5.20;99.90;;;;;;4997450;28;20482;-73
2022/02/07 06:20:42;;;;;;;16.33;2.60;;;5.20;99.90;;;;;;5013827;28;20123;-75
2022/02/07 06:23:09;;;;;;;21.60;4.83;;;5.20;99.90;;;;;;5013788;28;20516;-73
2022/02/07 06:25:35;;;;;;;22.00;3.80;;;5.30;99.90;;;;;;4997454;28;20029;-73
2022/02/07 06:28:01;;;;;;;22.83;3.27;;;5.30;99.90;;;;;;5013706;28;20501;-73
2022/02/07 06:30:41;;;;;;;13.83;3.40;;;5.20;99.90;;;;;;5013725;28;20356;-72
2022/02/07 06:33:07;;;;;;;19.13;2.97;;;5.30;99.90;;;;;;5031210;28;20448;-72
2022/02/07 06:35:34;;;;;;;23.93;3.23;;;5.30;99.90;;;;;;5029674;28;20481;-73
2022/02/07 06:38:00;;;;;;;18.77;3.20;;;5.20;99.90;;;;;;5013729;28;20037;-73
2022/02/07 06:40:27;;;;;;;26.50;3.70;;;5.20;99.90;;;;;;5013498;28;20029;-72
2022/02/07 06:42:53;;;;;;;16.87;2.70;;;5.30;99.90;;;;;;5031188;28;20409;-72
2022/02/07 06:45:20;;;;;;;20.13;2.70;;;5.30;99.90;;;;;;5031171;28;20033;-72
2022/02/07 06:47:46;;;;;;;25.90;3.00;;;5.30;99.90;;;;;;5031125;28;20498;-75
2022/02/07 06:50:12;;;;;;;16.57;2.70;;;5.30;99.90;;;;;;5013450;28;20041;-74
2022/02/07 06:52:38;;;;;;;25.27;2.63;;;5.30;99.90;;;;;;5013475;28;20029;-72
2022/02/07 06:55:07;;;;;;;17.23;2.20;;;5.30;99.90;;;;;;5013323;28;20025;-72
2022/02/07 06:57:36;;;;;;;19.17;3.20;;;5.30;99.90;;;;;;5013153;28;20132;-73
2022/02/07 07:00:05;;;;;;;20.00;2.38;;;5.30;99.90;;;;;;5029761;28;20022;-73
2022/02/07 07:02:35;;;;;;;19.53;3.63;;;5.30;99.90;;;;;;5013308;28;20036;-73
2022/02/07 07:05:08;;;;;;;19.57;3.10;;;5.30;99.90;;;;;;5029640;28;20052;-73
2022/02/07 07:07:35;;;;;;;21.50;2.80;;;5.30;99.90;;;;;;5029974;28;20030;-74
2022/02/07 07:10:03;;;;;;;19.67;3.70;;;5.30;99.90;;;;;;5029995;28;20116;-74
2022/02/07 07:12:30;;;;;;;16.07;2.43;;;5.30;99.90;;;;;;5013070;28;20174;-74
2022/02/07 07:15:15;;;;;;;18.27;2.70;;;5.30;99.90;;;;;;5030891;28;20036;-74
2022/02/07 07:17:42;;;;;;;17.77;2.33;;;5.30;99.90;;;;;;5013327;28;20452;-75
2022/02/07 07:20:10;;;;;;;20.00;2.93;;;5.30;99.90;;;;;;4997006;28;20032;-75
2022/02/07 07:22:36;;;;;;;14.68;2.70;;;5.30;99.90;;;;;;5031032;28;20026;-75
2022/02/07 07:25:14;;;;;;;18.63;2.60;;;5.30;99.90;;;;;;5012995;28;20040;-72
2022/02/07 07:27:56;;;;;;;20.07;2.80;;;5.30;99.90;;;;;;5013360;28;20371;-73
2022/02/07 07:30:29;;;;;;;17.90;2.57;;;5.30;99.90;;;;;;5029634;28;20032;-74
2022/02/07 07:33:05;;;;;;;18.13;2.63;;;5.30;99.90;;;;;;4997052;28;20116;-73
2022/02/07 07:35:32;;;;;;;15.20;2.90;;;5.30;99.90;;;;;;5013148;28;20034;-74
2022/02/07 07:37:59;;;;;;;11.40;2.20;;;5.30;99.90;;;;;;5013304;28;20394;-74
2022/02/07 07:40:25;;;;;;;15.90;2.80;;;5.30;99.90;;;;;;5013418;28;20025;-74
2022/02/07 07:42:54;;;;;;;23.63;3.47;;;5.30;99.90;;;;;;5013107;28;20033;-73
2022/02/07 07:45:55;;;;;;;29.13;4.30;;;5.30;99.90;;;;;;5031144;28;20121;-74
2022/02/07 07:48:46;;;;;;;27.23;5.47;;;5.20;99.90;;;;;;5032710;28;20040;-75
2022/02/07 07:54:50;;;;;;;28.90;6.03;;;5.30;99.90;;;;;;5000599;28;20128;-74
2022/02/07 08:02:56;;;;;;;18.00;4.17;;;5.40;99.90;;;;;;5016589;28;20486;-74
2022/02/07 08:05:44;;;;;;;25.47;3.13;;;5.40;99.90;;;;;;5034263;28;20026;-74
2022/02/07 08:08:27;;;;;;;14.82;2.47;;;5.40;99.90;;;;;;5032811;28;20079;-74
2022/02/07 08:11:04;;;;;;;23.90;3.07;;;5.40;99.90;;;;;;5016355;28;20044;-74
2022/02/07 08:13:34;;;;;;;14.63;2.50;;;5.40;99.90;;;;;;5015971;28;20057;-74
2022/02/07 08:16:08;;;;;;;17.57;2.20;;;5.40;99.90;;;;;;5000682;28;20118;-74
2022/02/07 08:18:34;;;;;;;16.77;2.70;;;5.30;99.90;;;;;;5033724;28;20110;-74
2022/02/07 08:21:00;;;;;;;17.10;3.33;;;5.30;99.90;;;;;;5033863;28;20442;-74
2022/02/07 08:23:26;;;;;;;15.33;1.80;;;5.40;99.90;;;;;;5033824;28;20041;-74
2022/02/07 08:25:53;;;;;;;19.73;2.77;;;5.50;99.90;;;;;;5033882;28;20398;-74
2022/02/07 08:28:19;;;;;;;22.20;3.63;;;5.50;99.90;;;;;;5033611;28;20037;-75
2022/02/07 08:30:45;;;;;;;23.70;4.60;;;5.50;99.90;;;;;;5033365;28;20035;-74
2022/02/07 08:33:11;;;;;;;16.17;3.20;;;5.50;99.90;;;;;;5033684;28;20029;-73
2022/02/07 08:35:37;;;;;;;14.33;2.70;;;5.50;99.90;;;;;;5033541;28;20105;-73
2022/02/07 08:38:03;;;;;;;22.17;3.67;;;5.50;99.90;;;;;;5015686;28;20030;-73
2022/02/07 08:40:33;;;;;;;19.87;3.13;;;5.50;99.90;;;;;;5033656;28;20026;-75
2022/02/07 08:43:00;;;;;;;;;;;5.50;99.90;;;;;;5016244;28;20040;-75
2022/02/07 08:45:26;;;;;;;18.47;3.30;;;5.50;99.90;;;;;;5033201;28;20429;-75
2022/02/07 08:47:56;;;;;;;16.13;2.97;;;5.60;99.90;;;;;;5033262;28;20371;-75
2022/02/07 08:50:27;;;;;;;18.20;3.50;;;5.60;99.90;;;;;;5033296;28;20449;-75
2022/02/07 08:52:56;;;;;;;22.80;4.30;;;5.50;99.90;;;;;;5015428;28;20056;-75
2022/02/07 08:55:30;;;;;;;21.17;3.20;;;5.50;99.90;;;;;;5033021;28;20029;-75
2022/02/07 08:58:02;;;;;;;16.20;3.30;;;5.50;99.90;;;;;;5015414;28;20489;-74
2022/02/07 09:03:21;;;;;;;19.70;3.10;;;5.50;99.90;;;;;;5033264;28;20041;-74
2022/02/07 09:06:12;;;;;;;19.50;3.22;;;5.50;99.90;;;;;;5015670;28;20100;-75
2022/02/07 09:11:12;;;;;;;19.73;3.07;;;5.50;99.90;;;;;;5032900;28;20082;-75
2022/02/07 09:13:41;;;;;;;21.87;3.90;;;5.60;99.90;;;;;;5033011;28;20060;-74
2022/02/07 09:18:37;;;;;;;21.17;3.37;;;5.70;99.90;;;;;;5032862;28;20052;-75
2022/02/07 09:21:07;;;;;;;21.23;3.10;;;5.70;99.90;;;;;;5031746;28;20025;-75
2022/02/07 09:23:34;;;;;;;15.13;2.80;;;5.80;99.90;;;;;;5032732;28;20375;-75
2022/02/07 09:26:00;;;;;;;20.87;2.50;;;5.80;99.90;;;;;;5032699;28;20033;-75
2022/02/07 09:28:28;;;;;;;22.17;3.40;;;5.80;99.90;;;;;;5032836;28;20437;-75
2022/02/07 09:30:54;;;;;;;18.47;3.50;;;5.80;99.90;;;;;;5015197;28;20033;-75
2022/02/07 09:33:21;;;;;;;21.77;4.00;;;5.80;99.90;;;;;;5032465;28;20029;-74
2022/02/07 09:35:50;;;;;;;24.73;3.90;;;5.90;99.90;;;;;;5014848;28;20030;-74
2022/02/07 09:38:19;;;;;;;24.13;4.57;;;5.90;99.90;;;;;;5014665;28;20025;-75
2022/02/07 09:40:51;;;;;;;23.73;3.77;;;6.00;99.90;;;;;;5014870;28;20065;-74
2022/02/07 09:43:18;;;;;;;21.50;3.73;;;6.00;99.90;;;;;;5032431;28;20040;-75
2022/02/07 09:45:47;;;;;;;21.40;4.53;;;6.00;99.90;;;;;;5032388;28;20057;-75
2022/02/07 09:48:15;;;;;;;24.55;4.78;;;6.00;99.90;;;;;;5014534;28;20033;-75
2022/02/07 09:50:41;;;;;;;28.80;4.47;;;6.00;99.90;;;;;;5032300;28;20041;-74
2022/02/07 09:53:07;;;;;;;26.03;4.87;;;6.10;99.90;;;;;;5032216;28;20122;-75
2022/02/07 09:55:34;;;;;;;20.07;3.47;;;6.20;99.90;;;;;;5032288;28;20025;-74
2022/02/07 09:58:00;;;;;;;30.53;3.60;;;6.20;99.90;;;;;;5032222;28;20037;-74
2022/02/07 10:00:33;;;;;;;30.57;3.90;;;6.20;99.90;;;;;;5032351;28;20034;-74
2022/02/07 10:03:19;;;;;;;20.87;3.87;;;6.20;99.90;;;;;;5014644;28;20540;-74
2022/02/07 10:06:02;;;;;;;27.37;4.17;;;6.30;99.90;;;;;;4998087;28;20108;-74
2022/02/07 10:08:45;;;;;;;22.63;4.93;;;6.30;99.90;;;;;;5031955;28;20039;-75
2022/02/07 10:14:01;;;;;;;23.03;3.33;;;6.40;99.90;;;;;;5031589;28;20030;-74
2022/02/07 10:16:45;;;;;;;24.03;3.40;;;6.50;99.90;;;;;;5031772;28;20485;-75
2022/02/07 10:37:03;;;;;;;23.57;3.47;;;6.80;99.90;;;;;;5031420;28;20025;-75
2022/02/07 10:47:10;;;;;;;23.63;3.27;;;7.00;99.90;;;;;;5031333;28;20105;-75
2022/02/07 10:49:37;;;;;;;22.53;3.37;;;7.10;99.90;;;;;;5031385;28;20040;-75
2022/02/07 10:52:03;;;;;;;18.20;3.00;;;7.10;99.90;;;;;;5031364;28;20040;-75
2022/02/07 10:54:30;;;;;;;20.83;3.23;;;7.10;99.90;;;;;;5013281;28;20034;-75
2022/02/07 10:56:56;;;;;;;24.47;2.93;;;7.20;99.90;;;;;;5013373;28;20029;-75
2022/02/07 10:59:23;;;;;;;18.73;3.33;;;7.20;99.90;;;;;;5030850;28;20118;-75
2022/02/07 11:02:32;;;;;;;23.97;4.70;;;7.20;99.90;;;;;;5013427;28;20037;-75
2022/02/07 11:04:45;;;;;;;21.47;3.43;;;7.20;99.90;;;;;;5031048;28;20037;-75
2022/02/07 11:07:13;;;;;;;26.27;4.87;;;7.20;99.90;;;;;;5013401;28;20040;-75
2022/02/07 11:10:03;;;;;;;23.70;4.07;;;7.30;99.90;;;;;;5031274;28;20069;-75
2022/02/07 11:15:09;;;;;;;22.25;4.18;;;7.30;99.90;;;;;;5030916;28;20121;-74
2022/02/07 11:18:13;;;;;;;20.67;3.50;;;7.30;99.90;;;;;;5031060;28;20040;-74
2022/02/07 11:23:37;;;;;;;24.87;3.07;;;7.30;99.90;;;;;;5034195;28;20041;-75
2022/02/07 11:26:25;;;;;;;;;;;7.20;99.90;;;;;;5035993;28;20120;-75
2022/02/07 11:28:51;;;;;;;15.57;2.93;;;7.20;99.90;;;;;;5033932;28;20285;-75
2022/02/07 11:31:28;;;;;;;19.40;3.20;;;7.20;99.90;;;;;;5035011;28;20279;-75
2022/02/07 11:34:02;;;;;;;19.60;2.90;;;7.20;99.90;;;;;;5035025;28;20029;-74
2022/02/07 11:36:34;;;;;;;19.40;2.70;;;7.20;99.90;;;;;;5035442;28;20036;-74
2022/02/07 11:39:06;;;;;;;23.30;2.73;;;7.20;99.90;;;;;;5000924;28;20051;-75
2022/02/07 11:42:00;;;;;;;18.60;2.87;;;7.20;99.90;;;;;;5017247;28;20029;-75
2022/02/07 11:44:49;;;;;;;18.03;2.47;;;7.20;99.90;;;;;;5016935;28;20087;-75
2022/02/07 11:47:16;;;;;;;17.92;2.30;;;7.20;99.90;;;;;;5034720;28;20033;-75
2022/02/07 11:49:47;;;;;;;18.50;2.53;;;7.20;99.90;;;;;;5017149;28;20120;-75
2022/02/07 11:52:32;;;;;;;19.77;2.97;;;7.20;99.90;;;;;;5034459;28;20040;-75
2022/02/07 11:55:12;;;;;;;23.33;3.60;;;7.30;99.90;;;;;;5034231;28;20075;-75
2022/02/07 12:00:16;;;;;;;17.38;2.83;;;7.20;99.90;;;;;;5033119;28;20053;-71
2022/02/07 12:02:48;;;;;;;17.93;2.73;;;7.20;99.90;;;;;;5034649;28;20060;-72
2022/02/07 12:05:22;;;;;;;19.00;3.03;;;7.10;99.90;;;;;;5034413;28;20056;-71
2022/02/07 12:08:07;;;;;;;24.50;3.67;;;7.10;99.90;;;;;;5034715;28;20625;-72
2022/02/07 12:10:39;;;;;;;15.43;2.67;;;7.10;99.90;;;;;;5034272;28;20017;-71
2022/02/07 12:13:26;;;;;;;21.43;2.93;;;7.20;99.90;;;;;;5034399;28;20182;-72
2022/02/07 12:15:55;;;;;;;18.40;3.33;;;7.20;99.90;;;;;;5034181;28;20032;-71
2022/02/07 12:18:24;;;;;;;15.40;2.47;;;7.20;99.90;;;;;;5016363;28;20040;-72
2022/02/07 12:20:55;;;;;;;20.05;3.03;;;7.20;99.90;;;;;;5034203;28;20021;-71
2022/02/07 12:23:31;;;;;;;19.63;3.10;;;7.20;99.90;;;;;;5034334;28;20036;-72
2022/02/07 12:26:08;;;;;;;12.57;2.73;;;7.20;99.90;;;;;;5034229;28;20490;-71
2022/02/07 12:28:42;;;;;;;22.00;3.97;;;7.20;99.90;;;;;;5016362;28;20033;-71
2022/02/07 12:31:21;;;;;;;17.23;2.47;;;7.20;99.90;;;;;;5034195;28;20084;-71
2022/02/07 12:34:02;;;;;;;23.00;3.28;;;7.20;99.90;;;;;;5033016;28;20025;-71
2022/02/07 12:36:33;;;;;;;14.07;3.07;;;7.30;99.90;;;;;;5033903;28;20494;-72
2022/02/07 12:39:06;;;;;;;21.10;3.00;;;7.30;99.90;;;;;;5016131;28;20504;-71
2022/02/07 12:41:33;;;;;;;18.07;2.70;;;7.30;99.90;;;;;;5033727;28;20037;-70
2022/02/07 12:44:01;;;;;;;17.47;2.90;;;7.30;99.90;;;;;;5033396;28;20025;-71
2022/02/07 12:46:30;;;;;;;17.47;2.63;;;7.30;99.90;;;;;;5033728;28;20690;-72
2022/02/07 12:49:08;;;;;;;12.25;2.53;;;7.30;99.90;;;;;;5016083;28;20040;-71
2022/02/07 12:51:42;;;;;;;21.27;3.37;;;7.30;99.90;;;;;;5015953;28;20088;-71
2022/02/07 12:54:09;;;;;;;15.83;2.40;;;7.20;99.90;;;;;;5033471;28;20033;-72
2022/02/07 12:56:37;;;;;;;17.83;3.13;;;7.20;99.90;;;;;;5033314;28;20033;-72
2022/02/07 12:59:04;;;;;;;19.43;3.40;;;7.30;99.90;;;;;;5033135;28;20393;-72
2022/02/07 13:01:38;;;;;;;11.87;3.30;;;7.30;99.90;;;;;;5033639;28;20395;-71
2022/02/07 13:04:14;;;;;;;14.90;2.73;;;7.30;99.90;;;;;;5033397;28;20033;-71
2022/02/07 13:06:47;;;;;;;17.70;3.20;;;7.30;99.90;;;;;;5033578;28;20049;-71
2022/02/07 13:09:28;;;;;;;16.77;2.70;;;7.30;99.90;;;;;;5032206;28;20056;-71
2022/02/07 13:14:38;;;;;;;14.67;2.27;;;7.30;99.90;;;;;;5033013;28;20033;-71
2022/02/07 13:17:06;;;;;;;16.05;2.85;;;7.30;99.90;;;;;;5033108;28;20075;-71
2022/02/07 13:19:40;;;;;;;14.00;2.60;;;7.30;99.90;;;;;;5032920;28;20045;-72
2022/02/07 13:22:08;;;;;;;14.87;2.33;;;7.40;99.90;;;;;;5033020;28;20022;-70
2022/02/07 13:24:36;;;;;;;16.67;3.30;;;7.40;99.90;;;;;;5032876;28;20083;-71
2022/02/07 13:27:08;;;;;;;17.80;2.90;;;7.40;99.90;;;;;;5032956;28;20064;-71
2022/02/07 13:29:46;;;;;;;20.23;2.80;;;7.50;99.90;;;;;;5032722;28;20031;-70
2022/02/07 13:32:19;;;;;;;19.07;2.80;;;7.50;99.90;;;;;;5032866;28;20037;-72
2022/02/07 13:34:48;;;;;;;8.13;1.90;;;7.60;99.90;;;;;;5032469;28;20025;-72
2022/02/07 13:37:18;;;;;;;15.57;2.40;;;7.70;99.90;;;;;;5032598;28;20087;-71
2022/02/07 13:40:04;;;;;;;17.60;4.20;;;7.70;99.90;;;;;;5032613;28;20497;-71
2022/02/07 13:42:39;;;;;;;25.93;4.20;;;7.70;99.90;;;;;;5032799;28;20044;-71
2022/02/07 13:45:07;;;;;;;19.83;4.77;;;7.70;99.90;;;;;;5031516;28;20040;-71
2022/02/07 13:47:35;;;;;;;12.87;2.73;;;7.60;99.90;;;;;;5032296;28;20029;-71
2022/02/07 13:50:10;;;;;;;17.47;2.80;;;7.60;99.90;;;;;;5032482;28;20290;-71
2022/02/07 13:52:39;;;;;;;20.73;3.33;;;7.60;99.90;;;;;;5032328;28;20032;-72
2022/02/07 13:55:24;;;;;;;11.23;2.70;;;7.60;99.90;;;;;;5030847;28;20124;-72
2022/02/07 13:57:57;;;;;;;11.37;1.90;;;7.60;99.90;;;;;;5032241;28;20034;-72
2022/02/07 14:00:26;;;;;;;15.63;2.70;;;7.60;99.90;;;;;;5014465;28;20489;-71
2022/02/07 14:03:03;;;;;;;;;;;7.60;99.90;;;;;;5032445;28;20032;-70
2022/02/07 14:05:37;;;;;;;13.73;2.60;;;7.50;99.90;;;;;;5032109;28;20331;-70
2022/02/07 14:08:05;;;;;;;12.37;3.93;;;7.60;99.90;;;;;;5032267;28;20032;-72
2022/02/07 14:10:37;;;;;;;8.83;2.13;;;7.60;99.90;;;;;;5032346;28;20029;-72
2022/02/07 14:13:05;;;;;;;17.07;3.60;;;7.70;99.90;;;;;;5031948;28;20042;-70
2022/02/07 14:15:32;;;;;;;9.70;2.17;;;7.70;99.90;;;;;;5031619;28;20053;-71
2022/02/07 14:18:02;;;;;;;11.60;2.33;;;7.70;99.90;;;;;;5031994;28;20032;-72
2022/02/07 14:20:31;;;;;;;6.80;1.83;;;7.70;99.90;;;;;;5031668;28;20032;-71
2022/02/07 14:22:57;;;;;;;9.98;1.90;;;7.70;99.90;;;;;;5031741;28;20022;-71
2022/02/07 14:25:28;;;;;;;12.00;2.63;;;7.70;99.90;;;;;;5031588;28;20104;-71
2022/02/07 14:27:58;;;;;;;11.77;2.17;;;7.80;99.90;;;;;;5014176;28;20080;-71
2022/02/07 14:30:25;;;;;;;12.37;2.13;;;7.80;99.90;;;;;;5032128;28;20021;-71
2022/02/07 14:32:53;;;;;;;13.50;2.10;;;7.80;99.90;;;;;;5013768;28;20033;-72
2022/02/07 14:35:20;;;;;;;11.67;1.90;;;7.80;99.90;;;;;;5030116;28;20029;-71
2022/02/07 14:37:46;;;;;;;13.57;1.77;;;7.80;99.90;;;;;;5031330;28;20522;-71
2022/02/07 14:40:13;;;;;;;10.83;2.00;;;7.70;99.90;;;;;;5031637;28;20026;-70
2022/02/07 14:42:39;;;;;;;11.70;2.00;;;7.70;99.90;;;;;;5031229;28;20036;-71
2022/02/07 14:45:18;;;;;;;11.53;1.87;;;7.60;99.90;;;;;;5031510;28;20034;-72
2022/02/07 14:50:17;;;;;;;11.93;2.33;;;7.70;99.90;;;;;;5031290;28;20037;-70
2022/02/07 14:52:43;;;;;;;12.00;2.27;;;7.70;99.90;;;;;;5031068;28;20513;-70
2022/02/07 14:55:10;;;;;;;12.37;2.40;;;7.70;99.90;;;;;;5030791;28;20036;-70
2022/02/07 14:57:36;;;;;;;18.33;2.87;;;7.70;99.90;;;;;;5030814;28;20394;-69
2022/02/07 15:00:08;;;;;;;11.30;1.90;;;7.70;99.90;;;;;;5030995;28;20489;-70
2022/02/07 15:02:34;;;;;;;13.30;1.93;;;7.70;99.90;;;;;;5030953;28;20095;-70
2022/02/07 15:05:01;;;;;;;12.63;1.73;;;7.70;99.90;;;;;;5030921;28;20116;-70
2022/02/07 15:07:27;;;;;;;13.87;1.50;;;7.70;99.90;;;;;;5013241;28;20029;-70
2022/02/07 15:09:54;;;;;;;10.83;1.80;;;7.60;99.90;;;;;;4996898;28;20029;-70
2022/02/07 15:12:20;;;;;;;13.03;2.17;;;7.60;99.90;;;;;;5031294;28;20036;-70
2022/02/07 15:14:49;;;;;;;10.97;2.13;;;7.60;99.90;;;;;;5030758;28;20426;-70
2022/02/07 15:17:19;;;;;;;14.13;2.37;;;7.60;99.90;;;;;;5030829;28;20052;-70
2022/02/07 15:19:46;;;;;;;11.87;1.93;;;7.60;99.90;;;;;;5030855;28;20094;-72
2022/02/07 15:22:12;;;;;;;13.67;1.87;;;7.60;99.90;;;;;;5030956;28;20053;-70
2022/02/07 15:24:39;;;;;;;13.50;2.00;;;7.70;99.90;;;;;;5013097;28;20026;-72
2022/02/07 15:27:09;;;;;;;10.10;2.00;;;7.70;99.90;;;;;;5031022;28;20398;-70